sensor_id;sensor_type;location;lat;lon;timestamp;P1;durP1;ratioP1;P2;durP2;ratioP2
2564;SDS011;1292;48.020;7.822;2023-12-28T06:45:35;4.33;;;2.20;;
2564;SDS011;1292;48.020;7.822;2023-12-28T06:48:02;1.83;;;1.57;;
2564;SDS011;1292;48.020;7.822;2023-12-28T06:50:30;2.23;;;1.77;;
2564;SDS011;1292;48.020;7.822;2023-12-28T06:52:56;2.97;;;1.80;;
2564;SDS011;1292;48.020;7.822;2023-12-28T06:55:23;2.33;;;1.90;;
2564;SDS011;1292;48.020;7.822;2023-12-28T06:57:50;2.00;;;1.80;;
2564;SDS011;1292;48.020;7.822;2023-12-28T07:00:17;2.27;;;2.00;;
2564;SDS011;1292;48.020;7.822;2023-12-28T07:02:45;3.37;;;2.10;;
2564;SDS011;1292;48.020;7.822;2023-12-28T07:05:12;2.10;;;1.73;;
2564;SDS011;1292;48.020;7.822;2023-12-28T07:07:39;1.90;;;1.73;;
2564;SDS011;1292;48.020;7.822;2023-12-28T07:10:06;3.80;;;1.90;;
2564;SDS011;1292;48.020;7.822;2023-12-28T07:12:33;2.63;;;1.43;;
2564;SDS011;1292;48.020;7.822;2023-12-28T07:15:00;2.10;;;1.63;;
2564;SDS011;1292;48.020;7.822;2023-12-28T07:17:27;2.87;;;1.90;;
2564;SDS011;1292;48.020;7.822;2023-12-28T07:19:55;2.07;;;1.87;;
2564;SDS011;1292;48.020;7.822;2023-12-28T07:22:22;1.63;;;1.53;;
2564;SDS011;1292;48.020;7.822;2023-12-28T07:24:49;2.17;;;1.93;;
2564;SDS011;1292;48.020;7.822;2023-12-28T07:27:16;2.60;;;1.80;;
2564;SDS011;1292;48.020;7.822;2023-12-28T07:29:42;3.20;;;2.83;;
2564;SDS011;1292;48.020;7.822;2023-12-28T07:32:09;1.80;;;1.63;;
2564;SDS011;1292;48.020;7.822;2023-12-28T07:34:36;2.50;;;1.60;;
2564;SDS011;1292;48.020;7.822;2023-12-28T07:37:04;1.90;;;1.60;;
2564;SDS011;1292;48.020;7.822;2023-12-28T07:39:31;1.87;;;1.40;;
2564;SDS011;1292;48.020;7.822;2023-12-28T07:41:58;3.63;;;2.10;;
2564;SDS011;1292;48.020;7.822;2023-12-28T07:44:24;2.57;;;1.60;;
2564;SDS011;1292;48.020;7.822;2023-12-28T07:46:52;4.40;;;2.03;;
2564;SDS011;1292;48.020;7.822;2023-12-28T07:49:18;2.57;;;1.97;;
2564;SDS011;1292;48.020;7.822;2023-12-28T07:51:45;2.83;;;1.90;;
2564;SDS011;1292;48.020;7.822;2023-12-28T07:54:13;2.07;;;1.87;;
2564;SDS011;1292;48.020;7.822;2023-12-28T07:56:40;3.87;;;2.20;;
2564;SDS011;1292;48.020;7.822;2023-12-28T07:59:07;1.73;;;1.60;;
2564;SDS011;1292;48.020;7.822;2023-12-28T08:01:34;2.50;;;2.10;;
2564;SDS011;1292;48.020;7.822;2023-12-28T08:04:01;3.33;;;1.80;;
2564;SDS011;1292;48.020;7.822;2023-12-28T08:06:28;5.80;;;2.57;;
2564;SDS011;1292;48.020;7.822;2023-12-28T08:08:57;2.30;;;2.10;;
2564;SDS011;1292;48.020;7.822;2023-12-28T08:11:27;1.97;;;1.60;;
2564;SDS011;1292;48.020;7.822;2023-12-28T08:13:53;1.90;;;1.67;;
2564;SDS011;1292;48.020;7.822;2023-12-28T08:16:20;2.70;;;2.07;;
2564;SDS011;1292;48.020;7.822;2023-12-28T08:18:47;2.23;;;1.60;;
2564;SDS011;1292;48.020;7.822;2023-12-28T08:21:14;1.83;;;1.73;;
2564;SDS011;1292;48.020;7.822;2023-12-28T08:23:41;2.30;;;1.73;;
2564;SDS011;1292;48.020;7.822;2023-12-28T08:26:07;2.20;;;1.73;;
2564;SDS011;1292;48.020;7.822;2023-12-28T08:28:36;2.20;;;2.00;;
2564;SDS011;1292;48.020;7.822;2023-12-28T08:31:03;2.03;;;1.47;;
2564;SDS011;1292;48.020;7.822;2023-12-28T08:33:32;2.23;;;1.70;;
2564;SDS011;1292;48.020;7.822;2023-12-28T08:36:00;2.53;;;2.27;;
2564;SDS011;1292;48.020;7.822;2023-12-28T08:38:29;2.00;;;1.70;;
2564;SDS011;1292;48.020;7.822;2023-12-28T08:40:55;2.00;;;1.80;;
2564;SDS011;1292;48.020;7.822;2023-12-28T08:43:22;2.23;;;2.03;;
2564;SDS011;1292;48.020;7.822;2023-12-28T08:45:50;2.10;;;1.90;;
2564;SDS011;1292;48.020;7.822;2023-12-28T08:48:17;2.67;;;1.53;;
2564;SDS011;1292;48.020;7.822;2023-12-28T08:50:44;4.37;;;2.57;;
2564;SDS011;1292;48.020;7.822;2023-12-28T08:53:11;2.20;;;1.93;;
2564;SDS011;1292;48.020;7.822;2023-12-28T08:55:37;1.67;;;1.57;;
2564;SDS011;1292;48.020;7.822;2023-12-28T08:58:04;1.53;;;1.43;;
2564;SDS011;1292;48.020;7.822;2023-12-28T09:00:31;2.07;;;1.80;;
2564;SDS011;1292;48.020;7.822;2023-12-28T09:02:59;2.20;;;1.50;;
2564;SDS011;1292;48.020;7.822;2023-12-28T09:05:26;2.30;;;2.10;;
2564;SDS011;1292;48.020;7.822;2023-12-28T09:07:53;3.03;;;1.90;;
2564;SDS011;1292;48.020;7.822;2023-12-28T09:10:20;3.33;;;2.10;;
2564;SDS011;1292;48.020;7.822;2023-12-28T09:12:46;2.70;;;2.50;;
2564;SDS011;1292;48.020;7.822;2023-12-28T09:15:13;2.50;;;2.30;;
2564;SDS011;1292;48.020;7.822;2023-12-28T09:17:40;3.70;;;2.13;;
2564;SDS011;1292;48.020;7.822;2023-12-28T09:20:09;2.57;;;2.20;;
2564;SDS011;1292;48.020;7.822;2023-12-28T09:22:36;2.47;;;2.27;;
2564;SDS011;1292;48.020;7.822;2023-12-28T09:25:03;2.37;;;2.00;;
2564;SDS011;1292;48.020;7.822;2023-12-28T09:27:31;2.30;;;1.60;;
2564;SDS011;1292;48.020;7.822;2023-12-28T09:29:57;3.03;;;2.70;;
2564;SDS011;1292;48.020;7.822;2023-12-28T09:32:24;3.30;;;1.93;;
2564;SDS011;1292;48.020;7.822;2023-12-28T09:34:51;2.67;;;1.80;;
2564;SDS011;1292;48.020;7.822;2023-12-28T09:37:19;2.63;;;1.60;;
2564;SDS011;1292;48.020;7.822;2023-12-28T09:39:46;4.83;;;2.50;;
2564;SDS011;1292;48.020;7.822;2023-12-28T09:42:14;2.77;;;2.50;;
2564;SDS011;1292;48.020;7.822;2023-12-28T09:44:47;3.10;;;2.00;;
2564;SDS011;1292;48.020;7.822;2023-12-28T09:47:14;2.60;;;1.93;;
2564;SDS011;1292;48.020;7.822;2023-12-28T09:49:42;2.60;;;2.00;;
2564;SDS011;1292;48.020;7.822;2023-12-28T09:52:11;2.87;;;2.23;;
2564;SDS011;1292;48.020;7.822;2023-12-28T09:54:39;5.00;;;2.13;;
2564;SDS011;1292;48.020;7.822;2023-12-28T09:57:06;2.10;;;1.60;;
2564;SDS011;1292;48.020;7.822;2023-12-28T09:59:33;5.20;;;1.93;;
2564;SDS011;1292;48.020;7.822;2023-12-28T10:02:02;2.13;;;1.73;;
2564;SDS011;1292;48.020;7.822;2023-12-28T10:04:29;6.60;;;3.30;;
2564;SDS011;1292;48.020;7.822;2023-12-28T10:06:56;9.07;;;1.93;;
2564;SDS011;1292;48.020;7.822;2023-12-28T10:09:23;3.50;;;2.40;;
2564;SDS011;1292;48.020;7.822;2023-12-28T10:11:53;3.57;;;2.70;;
2564;SDS011;1292;48.020;7.822;2023-12-28T10:14:20;2.63;;;2.43;;
2564;SDS011;1292;48.020;7.822;2023-12-28T10:16:47;3.33;;;2.60;;
2564;SDS011;1292;48.020;7.822;2023-12-28T10:19:14;4.30;;;3.80;;
2564;SDS011;1292;48.020;7.822;2023-12-28T10:24:16;5.30;;;2.67;;
2564;SDS011;1292;48.020;7.822;2023-12-28T10:26:42;2.10;;;1.63;;
2564;SDS011;1292;48.020;7.822;2023-12-28T10:29:11;4.20;;;2.70;;
2564;SDS011;1292;48.020;7.822;2023-12-28T10:31:41;2.70;;;1.83;;
2564;SDS011;1292;48.020;7.822;2023-12-28T10:34:08;2.53;;;2.33;;
2564;SDS011;1292;48.020;7.822;2023-12-28T10:36:35;2.30;;;2.10;;
2564;SDS011;1292;48.020;7.822;2023-12-28T10:39:04;2.50;;;1.90;;
2564;SDS011;1292;48.020;7.822;2023-12-28T10:41:34;3.03;;;2.43;;
2564;SDS011;1292;48.020;7.822;2023-12-28T10:44:04;4.50;;;2.10;;
2564;SDS011;1292;48.020;7.822;2023-12-28T10:46:34;2.57;;;2.37;;
2564;SDS011;1292;48.020;7.822;2023-12-28T10:49:08;4.13;;;1.87;;
2564;SDS011;1292;48.020;7.822;2023-12-28T10:51:37;2.90;;;2.70;;
2564;SDS011;1292;48.020;7.822;2023-12-28T10:54:11;3.33;;;3.03;;
2564;SDS011;1292;48.020;7.822;2023-12-28T10:56:47;2.87;;;2.67;;
2564;SDS011;1292;48.020;7.822;2023-12-28T10:59:32;1.80;;;1.60;;
2564;SDS011;1292;48.020;7.822;2023-12-28T11:02:08;1.87;;;1.77;;
2564;SDS011;1292;48.020;7.822;2023-12-28T11:04:39;6.50;;;5.13;;
2564;SDS011;1292;48.020;7.822;2023-12-28T11:07:09;2.77;;;2.30;;
2564;SDS011;1292;48.020;7.822;2023-12-28T11:09:37;2.30;;;2.10;;
2564;SDS011;1292;48.020;7.822;2023-12-28T11:12:07;6.07;;;4.40;;
2564;SDS011;1292;48.020;7.822;2023-12-28T11:14:35;3.70;;;2.90;;
2564;SDS011;1292;48.020;7.822;2023-12-28T11:17:04;4.60;;;2.67;;
2564;SDS011;1292;48.020;7.822;2023-12-28T11:19:39;2.47;;;2.23;;
2564;SDS011;1292;48.020;7.822;2023-12-28T11:22:07;4.73;;;2.93;;
2564;SDS011;1292;48.020;7.822;2023-12-28T11:24:35;3.50;;;3.20;;
2564;SDS011;1292;48.020;7.822;2023-12-28T11:27:02;3.33;;;2.13;;
2564;SDS011;1292;48.020;7.822;2023-12-28T11:29:31;5.17;;;3.67;;
2564;SDS011;1292;48.020;7.822;2023-12-28T11:31:58;7.47;;;4.50;;
2564;SDS011;1292;48.020;7.822;2023-12-28T11:34:25;6.00;;;4.40;;
2564;SDS011;1292;48.020;7.822;2023-12-28T11:36:55;8.60;;;5.20;;
2564;SDS011;1292;48.020;7.822;2023-12-28T11:39:29;7.03;;;5.60;;
2564;SDS011;1292;48.020;7.822;2023-12-28T11:42:01;3.93;;;3.40;;
2564;SDS011;1292;48.020;7.822;2023-12-28T11:44:29;4.07;;;3.67;;
2564;SDS011;1292;48.020;7.822;2023-12-28T11:46:56;4.63;;;4.10;;
2564;SDS011;1292;48.020;7.822;2023-12-28T11:49:25;6.30;;;4.67;;
2564;SDS011;1292;48.020;7.822;2023-12-28T11:51:54;3.67;;;2.73;;
2564;SDS011;1292;48.020;7.822;2023-12-28T11:54:24;2.57;;;2.37;;
2564;SDS011;1292;48.020;7.822;2023-12-28T11:56:51;2.90;;;2.60;;
2564;SDS011;1292;48.020;7.822;2023-12-28T11:59:18;5.80;;;3.20;;
2564;SDS011;1292;48.020;7.822;2023-12-28T12:01:49;3.77;;;2.70;;
2564;SDS011;1292;48.020;7.822;2023-12-28T12:04:16;5.60;;;3.60;;
2564;SDS011;1292;48.020;7.822;2023-12-28T12:06:44;2.87;;;2.53;;
2564;SDS011;1292;48.020;7.822;2023-12-28T12:09:12;5.60;;;4.23;;
2564;SDS011;1292;48.020;7.822;2023-12-28T12:11:40;2.63;;;2.43;;
2564;SDS011;1292;48.020;7.822;2023-12-28T12:14:08;2.37;;;2.17;;
2564;SDS011;1292;48.020;7.822;2023-12-28T12:16:35;4.20;;;3.30;;
2564;SDS011;1292;48.020;7.822;2023-12-28T12:19:03;3.40;;;2.30;;
2564;SDS011;1292;48.020;7.822;2023-12-28T12:21:32;7.83;;;3.07;;
2564;SDS011;1292;48.020;7.822;2023-12-28T12:23:59;4.30;;;2.43;;
2564;SDS011;1292;48.020;7.822;2023-12-28T12:26:28;5.90;;;3.50;;
2564;SDS011;1292;48.020;7.822;2023-12-28T12:28:56;2.60;;;2.40;;
2564;SDS011;1292;48.020;7.822;2023-12-28T12:31:23;3.40;;;3.10;;
2564;SDS011;1292;48.020;7.822;2023-12-28T12:33:51;7.53;;;4.63;;
2564;SDS011;1292;48.020;7.822;2023-12-28T12:36:18;3.70;;;3.40;;
2564;SDS011;1292;48.020;7.822;2023-12-28T12:38:46;3.70;;;3.03;;
2564;SDS011;1292;48.020;7.822;2023-12-28T12:41:13;4.20;;;2.80;;
2564;SDS011;1292;48.020;7.822;2023-12-28T12:43:41;3.37;;;2.80;;
2564;SDS011;1292;48.020;7.822;2023-12-28T12:46:08;3.93;;;2.80;;
2564;SDS011;1292;48.020;7.822;2023-12-28T12:48:35;3.30;;;3.00;;
2564;SDS011;1292;48.020;7.822;2023-12-28T12:51:02;3.43;;;3.13;;
2564;SDS011;1292;48.020;7.822;2023-12-28T12:53:32;3.40;;;2.80;;
2564;SDS011;1292;48.020;7.822;2023-12-28T12:56:00;3.73;;;2.90;;
2564;SDS011;1292;48.020;7.822;2023-12-28T12:58:25;3.77;;;3.20;;
2564;SDS011;1292;48.020;7.822;2023-12-28T13:00:57;3.00;;;2.80;;
2564;SDS011;1292;48.020;7.822;2023-12-28T13:03:27;3.17;;;2.87;;
2564;SDS011;1292;48.020;7.822;2023-12-28T13:05:55;4.17;;;3.77;;
2564;SDS011;1292;48.020;7.822;2023-12-28T13:08:22;3.13;;;2.83;;
2564;SDS011;1292;48.020;7.822;2023-12-28T13:10:49;5.60;;;3.97;;
2564;SDS011;1292;48.020;7.822;2023-12-28T13:13:16;4.50;;;3.90;;
2564;SDS011;1292;48.020;7.822;2023-12-28T13:15:43;3.00;;;2.63;;
2564;SDS011;1292;48.020;7.822;2023-12-28T13:18:11;3.30;;;2.90;;
2564;SDS011;1292;48.020;7.822;2023-12-28T13:20:38;3.17;;;2.40;;
2564;SDS011;1292;48.020;7.822;2023-12-28T13:23:05;2.70;;;2.40;;
2564;SDS011;1292;48.020;7.822;2023-12-28T13:25:32;3.27;;;2.97;;
2564;SDS011;1292;48.020;7.822;2023-12-28T13:27:58;3.93;;;2.77;;
2564;SDS011;1292;48.020;7.822;2023-12-28T13:30:25;3.40;;;3.07;;
2564;SDS011;1292;48.020;7.822;2023-12-28T13:32:53;4.47;;;4.07;;
2564;SDS011;1292;48.020;7.822;2023-12-28T13:35:23;6.60;;;4.67;;
2564;SDS011;1292;48.020;7.822;2023-12-28T13:37:49;8.37;;;5.63;;
2564;SDS011;1292;48.020;7.822;2023-12-28T13:40:16;4.33;;;3.60;;
2564;SDS011;1292;48.020;7.822;2023-12-28T13:42:43;3.80;;;3.50;;
2564;SDS011;1292;48.020;7.822;2023-12-28T13:45:10;4.57;;;4.07;;
2564;SDS011;1292;48.020;7.822;2023-12-28T13:47:37;2.80;;;2.50;;
2564;SDS011;1292;48.020;7.822;2023-12-28T13:50:04;5.10;;;3.63;;
2564;SDS011;1292;48.020;7.822;2023-12-28T13:52:33;2.63;;;2.43;;
2564;SDS011;1292;48.020;7.822;2023-12-28T13:55:00;5.83;;;3.40;;
2564;SDS011;1292;48.020;7.822;2023-12-28T13:57:27;4.17;;;3.57;;
2564;SDS011;1292;48.020;7.822;2023-12-28T13:59:54;3.53;;;3.23;;
2564;SDS011;1292;48.020;7.822;2023-12-28T14:02:25;3.80;;;3.30;;
2564;SDS011;1292;48.020;7.822;2023-12-28T14:04:51;5.70;;;4.17;;
2564;SDS011;1292;48.020;7.822;2023-12-28T14:07:19;3.43;;;3.13;;
2564;SDS011;1292;48.020;7.822;2023-12-28T14:09:47;2.90;;;2.60;;
2564;SDS011;1292;48.020;7.822;2023-12-28T14:12:14;3.87;;;2.80;;
2564;SDS011;1292;48.020;7.822;2023-12-28T14:14:40;4.07;;;3.10;;
2564;SDS011;1292;48.020;7.822;2023-12-28T14:17:07;3.20;;;2.70;;
2564;SDS011;1292;48.020;7.822;2023-12-28T14:19:34;3.80;;;3.40;;
2564;SDS011;1292;48.020;7.822;2023-12-28T14:22:01;4.20;;;3.80;;
2564;SDS011;1292;48.020;7.822;2023-12-28T14:24:29;4.50;;;3.20;;
2564;SDS011;1292;48.020;7.822;2023-12-28T14:26:58;4.33;;;3.10;;
2564;SDS011;1292;48.020;7.822;2023-12-28T14:29:25;3.10;;;2.87;;
2564;SDS011;1292;48.020;7.822;2023-12-28T14:31:53;3.50;;;2.90;;
2564;SDS011;1292;48.020;7.822;2023-12-28T14:34:20;2.97;;;2.53;;
2564;SDS011;1292;48.020;7.822;2023-12-28T14:36:47;6.70;;;3.13;;
2564;SDS011;1292;48.020;7.822;2023-12-28T14:39:16;4.40;;;3.20;;
2564;SDS011;1292;48.020;7.822;2023-12-28T14:41:44;3.93;;;3.20;;
2564;SDS011;1292;48.020;7.822;2023-12-28T14:44:13;3.27;;;3.00;;
2564;SDS011;1292;48.020;7.822;2023-12-28T14:46:40;3.80;;;3.10;;
2564;SDS011;1292;48.020;7.822;2023-12-28T14:49:07;3.47;;;3.00;;
2564;SDS011;1292;48.020;7.822;2023-12-28T14:51:33;2.50;;;2.27;;
2564;SDS011;1292;48.020;7.822;2023-12-28T14:54:00;3.07;;;2.87;;
2564;SDS011;1292;48.020;7.822;2023-12-28T14:56:27;2.97;;;2.67;;
2564;SDS011;1292;48.020;7.822;2023-12-28T14:58:54;3.30;;;2.63;;
2564;SDS011;1292;48.020;7.822;2023-12-28T15:01:22;4.33;;;3.90;;
2564;SDS011;1292;48.020;7.822;2023-12-28T15:03:49;2.57;;;2.40;;
2564;SDS011;1292;48.020;7.822;2023-12-28T15:06:15;2.90;;;2.50;;
2564;SDS011;1292;48.020;7.822;2023-12-28T15:08:42;3.27;;;2.70;;
2564;SDS011;1292;48.020;7.822;2023-12-28T15:11:09;2.83;;;2.63;;
2564;SDS011;1292;48.020;7.822;2023-12-28T15:13:37;2.80;;;2.60;;
2564;SDS011;1292;48.020;7.822;2023-12-28T15:16:04;2.90;;;2.63;;
2564;SDS011;1292;48.020;7.822;2023-12-28T15:18:34;2.37;;;2.17;;
2564;SDS011;1292;48.020;7.822;2023-12-28T15:21:01;3.60;;;3.00;;
2564;SDS011;1292;48.020;7.822;2023-12-28T15:23:28;2.63;;;2.43;;
2564;SDS011;1292;48.020;7.822;2023-12-28T15:25:55;2.47;;;2.30;;
2564;SDS011;1292;48.020;7.822;2023-12-28T15:28:23;3.50;;;3.10;;
2564;SDS011;1292;48.020;7.822;2023-12-28T15:30:49;2.27;;;2.07;;
2564;SDS011;1292;48.020;7.822;2023-12-28T15:33:16;2.83;;;2.60;;
2564;SDS011;1292;48.020;7.822;2023-12-28T15:35:44;3.60;;;2.73;;
2564;SDS011;1292;48.020;7.822;2023-12-28T15:38:11;2.87;;;2.50;;
2564;SDS011;1292;48.020;7.822;2023-12-28T15:40:40;3.23;;;2.60;;
2564;SDS011;1292;48.020;7.822;2023-12-28T15:43:08;5.90;;;2.77;;
2564;SDS011;1292;48.020;7.822;2023-12-28T15:45:35;2.83;;;2.23;;
2564;SDS011;1292;48.020;7.822;2023-12-28T15:48:02;3.60;;;3.20;;
2564;SDS011;1292;48.020;7.822;2023-12-28T15:50:30;3.90;;;3.60;;
2564;SDS011;1292;48.020;7.822;2023-12-28T15:52:58;5.40;;;3.80;;
2564;SDS011;1292;48.020;7.822;2023-12-28T15:55:24;3.73;;;3.30;;
2564;SDS011;1292;48.020;7.822;2023-12-28T15:57:51;4.03;;;3.63;;
2564;SDS011;1292;48.020;7.822;2023-12-28T16:00:18;4.83;;;3.87;;
2564;SDS011;1292;48.020;7.822;2023-12-28T16:02:45;5.07;;;4.67;;
2564;SDS011;1292;48.020;7.822;2023-12-28T16:05:11;7.00;;;3.00;;
2564;SDS011;1292;48.020;7.822;2023-12-28T16:07:38;3.93;;;3.50;;
2564;SDS011;1292;48.020;7.822;2023-12-28T16:10:07;3.57;;;3.27;;
2564;SDS011;1292;48.020;7.822;2023-12-28T16:12:34;4.40;;;3.40;;
2564;SDS011;1292;48.020;7.822;2023-12-28T16:15:01;4.73;;;3.03;;
2564;SDS011;1292;48.020;7.822;2023-12-28T16:17:29;3.53;;;3.33;;
2564;SDS011;1292;48.020;7.822;2023-12-28T16:19:56;4.33;;;3.03;;
2564;SDS011;1292;48.020;7.822;2023-12-28T16:22:24;3.00;;;2.73;;
2564;SDS011;1292;48.020;7.822;2023-12-28T16:24:51;3.03;;;2.73;;
2564;SDS011;1292;48.020;7.822;2023-12-28T16:27:19;3.77;;;3.40;;
2564;SDS011;1292;48.020;7.822;2023-12-28T16:29:46;3.23;;;2.93;;
2564;SDS011;1292;48.020;7.822;2023-12-28T16:32:13;3.87;;;3.53;;
2564;SDS011;1292;48.020;7.822;2023-12-28T16:34:40;3.80;;;3.40;;
2564;SDS011;1292;48.020;7.822;2023-12-28T16:37:07;6.70;;;3.10;;
2564;SDS011;1292;48.020;7.822;2023-12-28T16:39:34;4.13;;;3.73;;
2564;SDS011;1292;48.020;7.822;2023-12-28T16:42:00;3.60;;;3.30;;
2564;SDS011;1292;48.020;7.822;2023-12-28T16:44:29;3.73;;;3.43;;
2564;SDS011;1292;48.020;7.822;2023-12-28T16:46:55;6.13;;;4.00;;
2564;SDS011;1292;48.020;7.822;2023-12-28T16:49:23;4.03;;;3.73;;
2564;SDS011;1292;48.020;7.822;2023-12-28T16:51:50;4.30;;;3.70;;
2564;SDS011;1292;48.020;7.822;2023-12-28T16:54:16;5.00;;;4.20;;
2564;SDS011;1292;48.020;7.822;2023-12-28T16:56:43;6.20;;;5.20;;
2564;SDS011;1292;48.020;7.822;2023-12-28T16:59:11;5.80;;;4.90;;
2564;SDS011;1292;48.020;7.822;2023-12-28T17:01:41;4.20;;;3.77;;
2564;SDS011;1292;48.020;7.822;2023-12-28T17:04:08;3.90;;;3.20;;
2564;SDS011;1292;48.020;7.822;2023-12-28T17:06:35;3.70;;;3.23;;
2564;SDS011;1292;48.020;7.822;2023-12-28T17:09:02;4.17;;;3.77;;
2564;SDS011;1292;48.020;7.822;2023-12-28T17:11:34;6.07;;;3.53;;
2564;SDS011;1292;48.020;7.822;2023-12-28T17:14:02;3.73;;;3.37;;
2564;SDS011;1292;48.020;7.822;2023-12-28T17:16:29;4.20;;;3.80;;
2564;SDS011;1292;48.020;7.822;2023-12-28T17:18:59;4.03;;;3.63;;
2564;SDS011;1292;48.020;7.822;2023-12-28T17:21:29;4.70;;;3.70;;
2564;SDS011;1292;48.020;7.822;2023-12-28T17:23:59;5.60;;;3.83;;
2564;SDS011;1292;48.020;7.822;2023-12-28T17:26:26;3.80;;;3.40;;
2564;SDS011;1292;48.020;7.822;2023-12-28T17:28:58;4.73;;;3.60;;
2564;SDS011;1292;48.020;7.822;2023-12-28T17:31:29;4.53;;;4.10;;
2564;SDS011;1292;48.020;7.822;2023-12-28T17:33:59;6.77;;;6.17;;
2564;SDS011;1292;48.020;7.822;2023-12-28T17:36:27;4.47;;;3.97;;
2564;SDS011;1292;48.020;7.822;2023-12-28T17:38:56;5.90;;;4.93;;
2564;SDS011;1292;48.020;7.822;2023-12-28T17:41:28;4.47;;;3.30;;
2564;SDS011;1292;48.020;7.822;2023-12-28T17:43:59;5.93;;;4.27;;
2564;SDS011;1292;48.020;7.822;2023-12-28T17:46:33;3.50;;;3.07;;
2564;SDS011;1292;48.020;7.822;2023-12-28T17:49:15;2.77;;;2.53;;
2564;SDS011;1292;48.020;7.822;2023-12-28T17:51:46;4.00;;;2.80;;
2564;SDS011;1292;48.020;7.822;2023-12-28T17:54:16;2.83;;;2.63;;
2564;SDS011;1292;48.020;7.822;2023-12-28T17:56:43;4.20;;;3.43;;
2564;SDS011;1292;48.020;7.822;2023-12-28T17:59:10;5.10;;;4.27;;
2564;SDS011;1292;48.020;7.822;2023-12-28T18:01:37;3.63;;;3.30;;
2564;SDS011;1292;48.020;7.822;2023-12-28T18:04:04;2.90;;;2.70;;
2564;SDS011;1292;48.020;7.822;2023-12-28T18:06:32;3.50;;;3.20;;
2564;SDS011;1292;48.020;7.822;2023-12-28T18:08:59;5.87;;;3.73;;
2564;SDS011;1292;48.020;7.822;2023-12-28T18:11:26;4.60;;;4.03;;
2564;SDS011;1292;48.020;7.822;2023-12-28T18:13:52;4.37;;;3.97;;
2564;SDS011;1292;48.020;7.822;2023-12-28T18:16:19;5.30;;;4.10;;
2564;SDS011;1292;48.020;7.822;2023-12-28T18:18:47;6.47;;;5.67;;
2564;SDS011;1292;48.020;7.822;2023-12-28T18:21:13;4.50;;;4.10;;
2564;SDS011;1292;48.020;7.822;2023-12-28T18:23:42;4.90;;;3.83;;
2564;SDS011;1292;48.020;7.822;2023-12-28T18:26:09;5.17;;;4.37;;
2564;SDS011;1292;48.020;7.822;2023-12-28T18:28:36;5.00;;;4.60;;
2564;SDS011;1292;48.020;7.822;2023-12-28T18:31:03;3.90;;;3.50;;
2564;SDS011;1292;48.020;7.822;2023-12-28T18:33:30;4.30;;;3.53;;
2564;SDS011;1292;48.020;7.822;2023-12-28T18:35:57;4.33;;;3.93;;
2564;SDS011;1292;48.020;7.822;2023-12-28T18:38:25;6.20;;;5.60;;
2564;SDS011;1292;48.020;7.822;2023-12-28T18:40:53;4.10;;;3.70;;
2564;SDS011;1292;48.020;7.822;2023-12-28T18:43:19;4.20;;;3.50;;
2564;SDS011;1292;48.020;7.822;2023-12-28T18:45:46;4.30;;;3.90;;
2564;SDS011;1292;48.020;7.822;2023-12-28T18:48:13;4.57;;;3.90;;
2564;SDS011;1292;48.020;7.822;2023-12-28T18:50:41;4.07;;;3.70;;
2564;SDS011;1292;48.020;7.822;2023-12-28T18:53:09;4.73;;;4.23;;
2564;SDS011;1292;48.020;7.822;2023-12-28T18:55:36;5.63;;;3.60;;
2564;SDS011;1292;48.020;7.822;2023-12-28T18:58:05;5.00;;;4.47;;
2564;SDS011;1292;48.020;7.822;2023-12-28T19:00:32;6.97;;;3.60;;
2564;SDS011;1292;48.020;7.822;2023-12-28T19:02:59;5.70;;;5.13;;
2564;SDS011;1292;48.020;7.822;2023-12-28T19:05:26;5.33;;;4.20;;
2564;SDS011;1292;48.020;7.822;2023-12-28T19:07:53;7.67;;;6.80;;
2564;SDS011;1292;48.020;7.822;2023-12-28T19:10:20;17.07;;;15.20;;
2564;SDS011;1292;48.020;7.822;2023-12-28T19:12:47;5.87;;;4.80;;
2564;SDS011;1292;48.020;7.822;2023-12-28T19:15:15;8.30;;;5.40;;
2564;SDS011;1292;48.020;7.822;2023-12-28T19:17:42;5.80;;;5.30;;
2564;SDS011;1292;48.020;7.822;2023-12-28T19:20:09;4.80;;;4.37;;
2564;SDS011;1292;48.020;7.822;2023-12-28T19:22:38;5.60;;;3.67;;
2564;SDS011;1292;48.020;7.822;2023-12-28T19:25:05;3.70;;;3.40;;
2564;SDS011;1292;48.020;7.822;2023-12-28T19:27:32;4.97;;;3.50;;
2564;SDS011;1292;48.020;7.822;2023-12-28T19:29:59;6.47;;;4.53;;
2564;SDS011;1292;48.020;7.822;2023-12-28T19:32:27;5.13;;;3.70;;
2564;SDS011;1292;48.020;7.822;2023-12-28T19:34:55;4.40;;;4.00;;
2564;SDS011;1292;48.020;7.822;2023-12-28T19:37:21;5.20;;;4.70;;
2564;SDS011;1292;48.020;7.822;2023-12-28T19:39:48;6.60;;;3.87;;
2564;SDS011;1292;48.020;7.822;2023-12-28T19:42:15;4.47;;;4.07;;
2564;SDS011;1292;48.020;7.822;2023-12-28T19:44:42;4.30;;;4.00;;
2564;SDS011;1292;48.020;7.822;2023-12-28T19:47:09;5.50;;;4.60;;
2564;SDS011;1292;48.020;7.822;2023-12-28T19:49:37;3.90;;;3.50;;
2564;SDS011;1292;48.020;7.822;2023-12-28T19:52:04;4.40;;;3.97;;
2564;SDS011;1292;48.020;7.822;2023-12-28T19:54:31;4.07;;;3.33;;
2564;SDS011;1292;48.020;7.822;2023-12-28T19:56:58;3.90;;;3.53;;
2564;SDS011;1292;48.020;7.822;2023-12-28T19:59:25;5.70;;;3.40;;
2564;SDS011;1292;48.020;7.822;2023-12-28T20:01:52;3.50;;;3.20;;
2564;SDS011;1292;48.020;7.822;2023-12-28T20:04:20;6.67;;;4.10;;
2564;SDS011;1292;48.020;7.822;2023-12-28T20:06:48;5.10;;;3.90;;
2564;SDS011;1292;48.020;7.822;2023-12-28T20:09:15;4.47;;;3.73;;
2564;SDS011;1292;48.020;7.822;2023-12-28T20:11:42;3.40;;;3.07;;
2564;SDS011;1292;48.020;7.822;2023-12-28T20:14:12;2.90;;;2.43;;
2564;SDS011;1292;48.020;7.822;2023-12-28T20:16:38;3.90;;;3.40;;
2564;SDS011;1292;48.020;7.822;2023-12-28T20:19:07;4.17;;;3.50;;
2564;SDS011;1292;48.020;7.822;2023-12-28T20:21:34;2.87;;;2.63;;
2564;SDS011;1292;48.020;7.822;2023-12-28T20:24:03;3.30;;;3.00;;
2564;SDS011;1292;48.020;7.822;2023-12-28T20:26:30;3.97;;;3.30;;
2564;SDS011;1292;48.020;7.822;2023-12-28T20:28:57;3.57;;;2.80;;
2564;SDS011;1292;48.020;7.822;2023-12-28T20:31:23;4.93;;;3.50;;
2564;SDS011;1292;48.020;7.822;2023-12-28T20:33:50;3.60;;;3.30;;
2564;SDS011;1292;48.020;7.822;2023-12-28T20:36:17;3.27;;;2.97;;
2564;SDS011;1292;48.020;7.822;2023-12-28T20:38:44;3.50;;;3.10;;
2564;SDS011;1292;48.020;7.822;2023-12-28T20:41:12;3.93;;;3.20;;
2564;SDS011;1292;48.020;7.822;2023-12-28T20:43:42;4.03;;;3.17;;
2564;SDS011;1292;48.020;7.822;2023-12-28T20:46:09;3.30;;;3.00;;
2564;SDS011;1292;48.020;7.822;2023-12-28T20:48:36;3.20;;;2.90;;
2564;SDS011;1292;48.020;7.822;2023-12-28T20:51:04;3.10;;;2.80;;
2564;SDS011;1292;48.020;7.822;2023-12-28T20:53:31;3.57;;;3.27;;
2564;SDS011;1292;48.020;7.822;2023-12-28T20:55:58;4.67;;;3.43;;
2564;SDS011;1292;48.020;7.822;2023-12-28T20:58:26;3.23;;;2.93;;
2564;SDS011;1292;48.020;7.822;2023-12-28T21:00:53;4.53;;;3.70;;
2564;SDS011;1292;48.020;7.822;2023-12-28T21:03:20;5.43;;;4.87;;
2564;SDS011;1292;48.020;7.822;2023-12-28T21:05:47;5.50;;;4.03;;
2564;SDS011;1292;48.020;7.822;2023-12-28T21:08:13;3.10;;;2.90;;
2564;SDS011;1292;48.020;7.822;2023-12-28T21:10:40;4.37;;;3.03;;
2564;SDS011;1292;48.020;7.822;2023-12-28T21:13:07;4.20;;;3.17;;
2564;SDS011;1292;48.020;7.822;2023-12-28T21:15:44;6.43;;;5.70;;
2564;SDS011;1292;48.020;7.822;2023-12-28T21:18:11;7.07;;;6.57;;
2564;SDS011;1292;48.020;7.822;2023-12-28T21:20:38;4.70;;;4.30;;
2564;SDS011;1292;48.020;7.822;2023-12-28T21:23:06;3.83;;;3.10;;
2564;SDS011;1292;48.020;7.822;2023-12-28T21:25:33;4.03;;;3.63;;
2564;SDS011;1292;48.020;7.822;2023-12-28T21:27:59;4.73;;;3.47;;
2564;SDS011;1292;48.020;7.822;2023-12-28T21:30:29;8.13;;;4.93;;
2564;SDS011;1292;48.020;7.822;2023-12-28T21:32:57;4.27;;;3.80;;
2564;SDS011;1292;48.020;7.822;2023-12-28T21:35:24;3.50;;;3.17;;
2564;SDS011;1292;48.020;7.822;2023-12-28T21:37:50;3.63;;;3.30;;
2564;SDS011;1292;48.020;7.822;2023-12-28T21:40:17;3.67;;;3.30;;
2564;SDS011;1292;48.020;7.822;2023-12-28T21:42:44;4.73;;;3.80;;
2564;SDS011;1292;48.020;7.822;2023-12-28T21:45:11;4.13;;;3.00;;
2564;SDS011;1292;48.020;7.822;2023-12-28T21:47:38;3.40;;;3.10;;
2564;SDS011;1292;48.020;7.822;2023-12-28T21:50:06;3.03;;;2.77;;
2564;SDS011;1292;48.020;7.822;2023-12-28T21:52:33;4.07;;;3.70;;
2564;SDS011;1292;48.020;7.822;2023-12-28T21:55:00;3.07;;;2.77;;
2564;SDS011;1292;48.020;7.822;2023-12-28T21:57:27;4.33;;;3.47;;
2564;SDS011;1292;48.020;7.822;2023-12-28T21:59:55;6.07;;;3.60;;
2564;SDS011;1292;48.020;7.822;2023-12-28T22:02:21;3.23;;;2.97;;
2564;SDS011;1292;48.020;7.822;2023-12-28T22:04:49;3.67;;;3.33;;